Time;durP1;ratioP1;P1;durP2;ratioP2;P2;SDS_P1;SDS_P2;PMS_P1;PMS_P2;Temp;Humidity;BMP_temperature;BMP_pressure;BME280_temperature;BME280_humidity;BME280_pressure;Samples;Min_cycle;Max_cycle;Signal;HPM_P1;HPM_P2
2021/09/20 00:00:33;;;;;;;14.47;11.97;;;;;;;;;;5007731;28;20227;-73
2021/09/20 00:03:00;;;;;;;12.70;11.40;;;;;;;;;;5007111;28;20242;-73
2021/09/20 00:05:26;;;;;;;12.43;11.23;;;;;;;;;;5007073;28;20261;-73
2021/09/20 00:07:53;;;;;;;13.40;12.13;;;;;;;;;;5007229;28;20223;-73
2021/09/20 00:10:20;;;;;;;13.03;11.73;;;;;;;;;;5006852;28;20269;-73
2021/09/20 00:12:46;;;;;;;13.90;11.93;;;;;;;;;;5007443;28;20280;-73
2021/09/20 00:15:14;;;;;;;12.63;10.87;;;;;;;;;;5006881;28;20239;-72
2021/09/20 00:17:41;;;;;;;13.90;11.93;;;;;;;;;;5006440;28;20230;-73
2021/09/20 00:20:09;;;;;;;13.47;11.47;;;;;;;;;;5006543;28;20281;-73
2021/09/20 00:22:36;;;;;;;14.37;11.60;;;;;;;;;;5006651;28;20222;-73
2021/09/20 00:25:04;;;;;;;13.23;11.77;;;;;;;;;;5007305;28;20220;-73
2021/09/20 00:27:30;;;;;;;12.33;11.00;;;;;;;;;;5006704;28;20563;-73
2021/09/20 00:29:56;;;;;;;14.23;12.40;;;;;;;;;;5007369;28;20752;-73
2021/09/20 00:32:24;;;;;;;13.07;10.77;;;;;;;;;;5006620;28;20272;-73
2021/09/20 00:34:51;;;;;;;13.33;11.77;;;;;;;;;;5006227;28;20702;-73
2021/09/20 00:37:17;;;;;;;13.70;11.63;;;;;;;;;;5006556;28;20328;-73
2021/09/20 00:39:44;;;;;;;11.90;10.70;;;;;;;;;;5006945;28;20219;-73
2021/09/20 00:42:11;;;;;;;12.63;11.33;;;;;;;;;;5007012;28;20238;-76
2021/09/20 00:44:37;;;;;;;13.53;12.07;;;;;;;;;;5007102;28;20265;-76
2021/09/20 00:47:04;;;;;;;12.23;10.93;;;;;;;;;;5006919;28;20689;-72
2021/09/20 00:49:32;;;;;;;12.23;11.03;;;;;;;;;;5006918;28;20289;-73
2021/09/20 00:51:58;;;;;;;13.97;12.47;;;;;;;;;;5006669;28;20219;-73
2021/09/20 00:54:25;;;;;;;14.43;12.50;;;;;;;;;;5006992;28;20218;-73
2021/09/20 00:56:51;;;;;;;12.40;10.53;;;;;;;;;;5006356;28;20278;-73
2021/09/20 00:59:18;;;;;;;13.60;12.20;;;;;;;;;;5006901;28;20215;-73
2021/09/20 01:01:44;;;;;;;12.93;11.63;;;;;;;;;;5006609;28;20621;-73
2021/09/20 01:04:11;;;;;;;13.37;11.97;;;;;;;;;;5005958;28;20228;-73
2021/09/20 01:06:39;;;;;;;13.23;11.50;;;;;;;;;;5006750;28;20713;-73
2021/09/20 01:09:06;;;;;;;14.00;12.50;;;;;;;;;;5006745;28;20579;-74
2021/09/20 01:11:33;;;;;;;14.87;12.40;;;;;;;;;;5007074;28;20231;-73
2021/09/20 01:13:59;;;;;;;15.67;12.90;;;;;;;;;;5006239;28;21187;-74
2021/09/20 01:16:25;;;;;;;13.83;12.33;;;;;;;;;;5006354;28;20231;-74
2021/09/20 01:18:52;;;;;;;14.37;12.00;;;;;;;;;;5006763;28;20617;-73
2021/09/20 01:21:18;;;;;;;14.53;13.13;;;;;;;;;;5007111;28;20246;-73
2021/09/20 01:23:46;;;;;;;14.10;12.60;;;;;;;;;;5006172;28;20255;-73
2021/09/20 01:26:13;;;;;;;14.47;12.93;;;;;;;;;;5005904;28;20368;-73
2021/09/20 01:28:40;;;;;;;13.70;12.13;;;;;;;;;;5005820;28;20258;-73
2021/09/20 01:31:07;;;;;;;13.87;12.33;;;;;;;;;;5006346;28;20265;-73
2021/09/20 01:33:33;;;;;;;14.03;12.53;;;;;;;;;;5008794;28;20214;-73
2021/09/20 01:36:00;;;;;;;16.13;13.43;;;;;;;;;;5008634;28;20823;-73
2021/09/20 01:38:26;;;;;;;14.13;12.03;;;;;;;;;;5010216;28;20216;-73
2021/09/20 01:40:54;;;;;;;15.93;13.63;;;;;;;;;;5009840;28;20780;-73
2021/09/20 01:43:20;;;;;;;14.00;12.50;;;;;;;;;;5009303;28;20302;-73
2021/09/20 01:45:47;;;;;;;13.93;12.53;;;;;;;;;;5010164;28;20630;-73
2021/09/20 01:48:16;;;;;;;13.70;12.20;;;;;;;;;;5009105;28;20247;-73
2021/09/20 01:50:43;;;;;;;13.73;12.23;;;;;;;;;;5009052;28;20219;-73
2021/09/20 01:53:09;;;;;;;13.60;12.20;;;;;;;;;;5009981;28;20216;-73
2021/09/20 01:55:35;;;;;;;13.73;12.33;;;;;;;;;;5009424;28;20285;-76
2021/09/20 01:58:03;;;;;;;13.73;12.33;;;;;;;;;;5009306;28;20231;-74
2021/09/20 02:00:30;;;;;;;17.97;12.93;;;;;;;;;;5009657;28;20217;-74
2021/09/20 02:02:56;;;;;;;15.10;12.67;;;;;;;;;;5009715;28;20222;-74
2021/09/20 02:05:23;;;;;;;14.83;12.50;;;;;;;;;;5009650;28;20216;-74
2021/09/20 02:07:49;;;;;;;14.93;12.10;;;;;;;;;;5009054;28;20219;-74
2021/09/20 02:10:17;;;;;;;15.43;12.70;;;;;;;;;;5009376;28;20214;-74
2021/09/20 02:12:44;;;;;;;15.23;13.60;;;;;;;;;;5009375;28;20327;-74
2021/09/20 02:15:12;;;;;;;15.17;13.23;;;;;;;;;;5009051;28;20219;-74
2021/09/20 02:17:39;;;;;;;15.17;12.83;;;;;;;;;;5008974;28;20262;-74
2021/09/20 02:20:07;;;;;;;15.20;12.70;;;;;;;;;;5009271;28;20213;-74
2021/09/20 02:22:34;;;;;;;15.63;13.10;;;;;;;;;;5009640;28;20213;-74
2021/09/20 02:25:01;;;;;;;15.03;12.10;;;;;;;;;;5009444;28;20543;-73
2021/09/20 02:27:27;;;;;;;14.63;12.40;;;;;;;;;;5009064;28;20238;-74
2021/09/20 02:29:54;;;;;;;14.33;12.83;;;;;;;;;;5008548;28;20214;-74
2021/09/20 02:32:22;;;;;;;15.30;12.90;;;;;;;;;;5009240;28;20277;-74
2021/09/20 02:34:48;;;;;;;13.67;12.17;;;;;;;;;;5009044;28;20269;-73
2021/09/20 02:37:15;;;;;;;14.63;13.03;;;;;;;;;;5008077;28;20304;-73
2021/09/20 02:39:41;;;;;;;16.53;14.20;;;;;;;;;;5008244;28;20232;-73
2021/09/20 02:42:08;;;;;;;14.70;12.97;;;;;;;;;;5008869;28;20235;-73
2021/09/20 02:44:34;;;;;;;16.20;13.00;;;;;;;;;;5007311;28;20213;-73
2021/09/20 02:47:00;;;;;;;17.47;12.90;;;;;;;;;;5008409;28;20223;-74
2021/09/20 02:49:28;;;;;;;16.83;13.50;;;;;;;;;;5008449;28;20293;-74
2021/09/20 02:51:54;;;;;;;15.30;12.33;;;;;;;;;;5008003;28;20218;-73
2021/09/20 02:54:21;;;;;;;16.57;13.03;;;;;;;;;;5008217;28;20670;-74
2021/09/20 02:56:47;;;;;;;14.53;12.70;;;;;;;;;;5008656;28;20254;-74
2021/09/20 02:59:14;;;;;;;17.47;13.27;;;;;;;;;;5008898;28;20241;-73
2021/09/20 03:01:40;;;;;;;16.53;13.07;;;;;;;;;;5008350;28;20219;-73
2021/09/20 03:04:06;;;;;;;16.17;12.73;;;;;;;;;;5008232;28;20219;-73
2021/09/20 03:06:34;;;;;;;15.80;12.47;;;;;;;;;;5007721;28;20215;-73
2021/09/20 03:09:01;;;;;;;15.83;12.60;;;;;;;;;;5008002;28;20666;-73
2021/09/20 03:11:27;;;;;;;15.87;12.93;;;;;;;;;;5007650;28;20309;-73
2021/09/20 03:13:54;;;;;;;14.07;12.60;;;;;;;;;;5007473;28;20264;-73
2021/09/20 03:16:20;;;;;;;16.30;13.00;;;;;;;;;;5007469;28;20516;-74
2021/09/20 03:18:46;;;;;;;15.67;13.37;;;;;;;;;;5007972;28;20291;-74
2021/09/20 03:21:13;;;;;;;16.33;12.47;;;;;;;;;;5008147;28;20213;-74
2021/09/20 03:23:40;;;;;;;14.60;13.00;;;;;;;;;;5007770;28;20214;-74
2021/09/20 03:26:07;;;;;;;17.27;13.20;;;;;;;;;;5007816;28;20242;-74
2021/09/20 03:28:33;;;;;;;15.73;12.53;;;;;;;;;;5008259;28;20222;-74
2021/09/20 03:31:00;;;;;;;14.93;12.93;;;;;;;;;;5008007;28;20705;-74
2021/09/20 03:33:26;;;;;;;16.27;12.43;;;;;;;;;;5007485;28;20613;-73
2021/09/20 03:35:52;;;;;;;15.67;13.10;;;;;;;;;;5006219;28;20649;-73
2021/09/20 03:38:19;;;;;;;18.10;12.87;;;;;;;;;;5008439;28;20219;-74
2021/09/20 03:40:47;;;;;;;15.60;13.90;;;;;;;;;;5007587;28;20669;-73
2021/09/20 03:43:13;;;;;;;15.20;13.20;;;;;;;;;;5007461;28;20237;-74
2021/09/20 03:45:40;;;;;;;17.10;13.83;;;;;;;;;;5006720;28;20215;-74
2021/09/20 03:48:06;;;;;;;16.90;12.97;;;;;;;;;;5007382;28;20265;-74
2021/09/20 03:50:33;;;;;;;16.70;12.97;;;;;;;;;;5007589;28;20217;-73
2021/09/20 03:52:59;;;;;;;14.63;12.67;;;;;;;;;;5007538;28;20215;-73
2021/09/20 03:55:26;;;;;;;18.80;12.73;;;;;;;;;;5006804;28;20223;-73
2021/09/20 03:57:54;;;;;;;18.13;13.87;;;;;;;;;;5006950;28;20277;-74
2021/09/20 04:00:20;;;;;;;15.70;13.13;;;;;;;;;;5007199;28;20214;-74
2021/09/20 04:02:47;;;;;;;20.20;13.80;;;;;;;;;;5006973;28;20288;-74
2021/09/20 04:05:13;;;;;;;16.87;13.27;;;;;;;;;;5007116;28;20217;-73
2021/09/20 04:07:40;;;;;;;17.47;13.27;;;;;;;;;;5007577;28;20208;-73
2021/09/20 04:10:07;;;;;;;15.80;13.73;;;;;;;;;;5006909;28;20311;-73
2021/09/20 04:12:33;;;;;;;17.80;13.67;;;;;;;;;;5007189;28;20296;-73
2021/09/20 04:15:01;;;;;;;18.07;14.27;;;;;;;;;;5006922;28;20206;-73
2021/09/20 04:17:28;;;;;;;17.83;13.83;;;;;;;;;;5006857;28;20238;-73
2021/09/20 04:19:54;;;;;;;17.93;12.33;;;;;;;;;;5007143;28;20226;-73
2021/09/20 04:22:21;;;;;;;16.97;13.97;;;;;;;;;;5007349;28;20206;-73
2021/09/20 04:24:47;;;;;;;17.33;13.27;;;;;;;;;;5006865;28;20213;-73
2021/09/20 04:27:13;;;;;;;19.57;15.00;;;;;;;;;;5006448;28;20229;-73
2021/09/20 04:29:40;;;;;;;17.37;13.50;;;;;;;;;;5007289;28;20636;-73
2021/09/20 04:32:08;;;;;;;19.38;16.27;;;;;;;;;;5005031;28;20979;-74
2021/09/20 04:34:35;;;;;;;17.73;13.43;;;;;;;;;;5007155;28;20645;-73
2021/09/20 04:37:01;;;;;;;15.43;13.33;;;;;;;;;;5006908;28;20250;-74
2021/09/20 04:39:27;;;;;;;16.77;14.30;;;;;;;;;;5006653;28;20272;-74
2021/09/20 04:41:54;;;;;;;17.57;13.83;;;;;;;;;;5007143;28;20241;-74
2021/09/20 04:44:20;;;;;;;19.77;13.13;;;;;;;;;;5007349;28;20222;-73
2021/09/20 04:46:46;;;;;;;20.47;13.77;;;;;;;;;;5007171;28;20211;-76
2021/09/20 04:49:14;;;;;;;17.17;12.77;;;;;;;;;;5006882;28;20744;-73
2021/09/20 04:51:41;;;;;;;18.30;12.97;;;;;;;;;;5007096;28;20265;-76
2021/09/20 04:54:08;;;;;;;20.23;13.30;;;;;;;;;;5006330;28;20618;-75
2021/09/20 04:56:34;;;;;;;20.30;13.20;;;;;;;;;;5006621;28;20241;-75
2021/09/20 04:59:01;;;;;;;18.17;13.80;;;;;;;;;;5006478;28;20219;-76
2021/09/20 05:01:27;;;;;;;17.77;13.20;;;;;;;;;;5006593;28;20264;-74
2021/09/20 05:03:53;;;;;;;18.83;13.73;;;;;;;;;;5004245;28;20267;-74
2021/09/20 05:06:21;;;;;;;19.37;13.77;;;;;;;;;;5006250;28;20262;-75
2021/09/20 05:08:48;;;;;;;17.23;13.40;;;;;;;;;;5009481;28;20227;-75
2021/09/20 05:11:14;;;;;;;16.60;12.77;;;;;;;;;;5009036;28;20229;-73
2021/09/20 05:13:41;;;;;;;23.50;13.63;;;;;;;;;;5009675;28;20215;-74
2021/09/20 05:16:07;;;;;;;20.00;13.87;;;;;;;;;;5009222;28;21228;-74
2021/09/20 05:18:33;;;;;;;17.67;14.03;;;;;;;;;;5009814;28;20353;-73
2021/09/20 05:21:00;;;;;;;17.77;13.00;;;;;;;;;;5009978;28;20222;-73
2021/09/20 05:23:28;;;;;;;19.83;13.63;;;;;;;;;;5010051;28;20261;-73
2021/09/20 05:25:54;;;;;;;18.37;13.20;;;;;;;;;;5009071;28;20214;-73
2021/09/20 05:28:21;;;;;;;19.57;14.30;;;;;;;;;;5009071;28;20225;-73
2021/09/20 05:30:48;;;;;;;17.57;12.40;;;;;;;;;;5009244;28;20220;-73
2021/09/20 05:33:15;;;;;;;17.37;13.27;;;;;;;;;;5009123;28;20218;-73
2021/09/20 05:35:42;;;;;;;18.13;13.40;;;;;;;;;;5008030;28;20258;-73
2021/09/20 05:38:09;;;;;;;19.80;14.00;;;;;;;;;;5009281;28;20229;-73
2021/09/20 05:40:37;;;;;;;16.27;13.40;;;;;;;;;;5008776;28;20273;-73
2021/09/20 05:43:04;;;;;;;20.37;14.93;;;;;;;;;;5007923;28;20695;-73
2021/09/20 05:45:30;;;;;;;15.10;12.97;;;;;;;;;;5009048;28;20608;-73
2021/09/20 05:47:56;;;;;;;17.67;12.80;;;;;;;;;;5008457;28;20333;-73
2021/09/20 05:50:23;;;;;;;17.83;14.17;;;;;;;;;;5008331;28;20293;-72
2021/09/20 05:52:50;;;;;;;16.97;11.97;;;;;;;;;;5007332;28;20310;-73
2021/09/20 05:55:17;;;;;;;14.17;12.07;;;;;;;;;;5008784;28;20250;-73
2021/09/20 05:57:45;;;;;;;13.23;11.80;;;;;;;;;;5007314;28;20832;-73
2021/09/20 06:00:12;;;;;;;13.67;11.87;;;;;;;;;;5008003;28;20265;-73
2021/09/20 06:02:39;;;;;;;14.10;12.40;;;;;;;;;;5007581;28;20244;-75
2021/09/20 06:05:07;;;;;;;18.50;12.10;;;;;;;;;;5008635;28;20226;-72
2021/09/20 06:07:33;;;;;;;13.33;11.80;;;;;;;;;;5007014;28;20362;-72
2021/09/20 06:09:59;;;;;;;15.90;12.07;;;;;;;;;;5006686;28;20234;-75
2021/09/20 06:12:26;;;;;;;15.67;12.07;;;;;;;;;;5007119;28;20242;-75
2021/09/20 06:14:54;;;;;;;15.97;11.13;;;;;;;;;;5007078;28;20293;-75
2021/09/20 06:17:20;;;;;;;14.63;11.87;;;;;;;;;;5005569;28;20683;-75
2021/09/20 06:19:47;;;;;;;12.57;11.17;;;;;;;;;;5006571;28;20215;-74
2021/09/20 06:22:14;;;;;;;13.43;11.23;;;;;;;;;;5007077;28;20222;-74
2021/09/20 06:24:41;;;;;;;13.17;10.97;;;;;;;;;;5006826;28;20552;-72
2021/09/20 06:27:07;;;;;;;13.40;11.40;;;;;;;;;;5006590;28;20224;-72
2021/09/20 06:29:34;;;;;;;11.97;10.67;;;;;;;;;;5007131;28;20273;-72
2021/09/20 06:32:02;;;;;;;13.30;11.20;;;;;;;;;;5006337;28;20271;-73
2021/09/20 06:34:28;;;;;;;15.57;9.83;;;;;;;;;;5006272;28;20273;-74
2021/09/20 06:36:54;;;;;;;11.53;10.33;;;;;;;;;;5006572;28;20718;-75
2021/09/20 06:39:21;;;;;;;12.33;9.90;;;;;;;;;;5006571;28;20223;-74
2021/09/20 06:41:47;;;;;;;12.10;10.27;;;;;;;;;;5006626;28;20722;-74
2021/09/20 06:44:14;;;;;;;15.40;10.33;;;;;;;;;;5006909;28;20270;-75
2021/09/20 06:46:40;;;;;;;12.33;10.80;;;;;;;;;;5005295;28;20246;-74
2021/09/20 06:49:08;;;;;;;12.27;10.17;;;;;;;;;;5007141;28;20608;-74
2021/09/20 06:51:36;;;;;;;11.30;10.07;;;;;;;;;;5006744;28;20223;-74
2021/09/20 06:54:03;;;;;;;11.20;10.10;;;;;;;;;;5006494;28;20243;-74
2021/09/20 06:56:29;;;;;;;12.17;9.63;;;;;;;;;;5005819;28;20258;-74
2021/09/20 06:58:56;;;;;;;11.67;10.23;;;;;;;;;;5006872;28;20223;-74
2021/09/20 07:01:23;;;;;;;12.17;9.93;;;;;;;;;;5005971;28;20216;-75
2021/09/20 07:03:49;;;;;;;11.90;10.40;;;;;;;;;;5005008;28;20225;-74
2021/09/20 07:06:17;;;;;;;11.03;9.80;;;;;;;;;;5005213;28;20266;-74
2021/09/20 07:08:43;;;;;;;10.90;9.80;;;;;;;;;;5005793;28;20278;-74
2021/09/20 07:11:10;;;;;;;11.70;10.37;;;;;;;;;;5005613;28;20281;-75
2021/09/20 07:13:36;;;;;;;12.67;9.83;;;;;;;;;;5006591;28;20207;-75
2021/09/20 07:16:03;;;;;;;11.20;10.20;;;;;;;;;;5005766;28;20669;-74
2021/09/20 07:18:29;;;;;;;10.37;9.27;;;;;;;;;;5006152;28;20386;-74
2021/09/20 07:20:56;;;;;;;11.90;10.80;;;;;;;;;;5005298;28;20261;-73
2021/09/20 07:23:24;;;;;;;10.03;9.03;;;;;;;;;;5005438;28;20534;-74
2021/09/20 07:25:50;;;;;;;11.47;9.80;;;;;;;;;;5005532;28;20218;-74
2021/09/20 07:28:16;;;;;;;10.93;9.83;;;;;;;;;;5005713;28;20208;-74
2021/09/20 07:30:44;;;;;;;10.83;9.83;;;;;;;;;;5005004;28;20432;-73
2021/09/20 07:33:11;;;;;;;10.23;9.20;;;;;;;;;;5004995;28;20337;-73
2021/09/20 07:35:38;;;;;;;9.90;8.90;;;;;;;;;;5004793;28;21404;-73
2021/09/20 07:38:05;;;;;;;9.63;8.40;;;;;;;;;;5004991;28;21220;-73
2021/09/20 07:40:34;;;;;;;12.27;9.57;;;;;;;;;;5004521;28;20282;-73
2021/09/20 07:43:01;;;;;;;12.63;9.37;;;;;;;;;;5004515;28;20235;-73
2021/09/20 07:45:29;;;;;;;8.83;8.03;;;;;;;;;;5004601;28;20224;-73
2021/09/20 07:47:55;;;;;;;10.33;8.63;;;;;;;;;;5004313;28;20216;-73
2021/09/20 07:50:22;;;;;;;10.27;8.97;;;;;;;;;;5004235;28;20282;-73
2021/09/20 07:52:50;;;;;;;10.27;8.40;;;;;;;;;;5004437;28;20221;-73
2021/09/20 07:55:18;;;;;;;9.20;7.93;;;;;;;;;;5004040;28;20212;-74
2021/09/20 07:57:47;;;;;;;10.53;9.03;;;;;;;;;;5002099;28;20232;-74
2021/09/20 08:00:17;;;;;;;10.80;8.87;;;;;;;;;;5003632;28;20847;-74
2021/09/20 08:02:44;;;;;;;10.87;8.67;;;;;;;;;;5002584;28;20705;-76
2021/09/20 08:05:11;;;;;;;9.50;8.43;;;;;;;;;;5003765;28;20674;-76
2021/09/20 08:07:38;;;;;;;8.77;7.93;;;;;;;;;;5005036;28;20207;-74
2021/09/20 08:10:06;;;;;;;8.67;7.70;;;;;;;;;;5005017;28;20577;-73
2021/09/20 08:12:33;;;;;;;10.30;7.87;;;;;;;;;;5005071;28;20243;-74
2021/09/20 08:15:01;;;;;;;7.83;7.03;;;;;;;;;;5004923;28;20204;-74
2021/09/20 08:17:28;;;;;;;8.23;7.53;;;;;;;;;;5004770;28;21262;-74
2021/09/20 08:19:55;;;;;;;8.47;7.03;;;;;;;;;;5004949;28;20752;-74
2021/09/20 08:22:21;;;;;;;9.97;7.47;;;;;;;;;;5005032;28;20219;-74
2021/09/20 08:24:48;;;;;;;10.27;8.47;;;;;;;;;;5004750;28;20227;-74
2021/09/20 08:27:15;;;;;;;11.90;7.47;;;;;;;;;;5004416;28;20238;-74
2021/09/20 08:29:41;;;;;;;8.83;7.43;;;;;;;;;;5004367;28;20212;-74
2021/09/20 08:32:09;;;;;;;8.67;7.13;;;;;;;;;;5003958;28;20204;-74
2021/09/20 08:34:36;;;;;;;8.37;6.97;;;;;;;;;;5005090;28;20733;-74
2021/09/20 08:37:03;;;;;;;15.40;7.00;;;;;;;;;;5003503;28;20276;-74
2021/09/20 08:39:30;;;;;;;8.17;7.37;;;;;;;;;;5005104;28;20658;-74
2021/09/20 08:41:57;;;;;;;8.43;6.63;;;;;;;;;;5004678;28;20235;-74
2021/09/20 08:44:23;;;;;;;7.00;6.30;;;;;;;;;;5008847;28;20684;-74
2021/09/20 08:46:52;;;;;;;8.37;7.57;;;;;;;;;;5008443;28;20297;-73
2021/09/20 08:49:21;;;;;;;8.53;6.77;;;;;;;;;;5009592;28;20230;-74
2021/09/20 08:51:47;;;;;;;6.73;6.13;;;;;;;;;;5007884;28;20234;-74
2021/09/20 08:54:15;;;;;;;10.90;6.70;;;;;;;;;;5008275;28;20662;-74
2021/09/20 08:56:41;;;;;;;8.73;6.50;;;;;;;;;;5008068;28;20758;-74
2021/09/20 08:59:08;;;;;;;8.93;6.80;;;;;;;;;;5007757;28;20289;-74
2021/09/20 09:01:35;;;;;;;7.53;6.83;;;;;;;;;;5008013;28;20253;-73
2021/09/20 09:04:31;;;;;;;7.37;6.53;;;;;;;;;;5008222;28;20654;-74
2021/09/20 09:06:59;;;;;;;9.73;7.37;;;;;;;;;;5006608;28;20594;-73
2021/09/20 09:09:28;;;;;;;9.27;7.73;;;;;;;;;;5006783;28;20213;-74
2021/09/20 09:12:08;;;;;;;10.40;7.43;;;;;;;;;;5008187;28;20424;-73
2021/09/20 09:14:39;;;;;;;9.77;8.07;;;;;;;;;;5008646;28;20264;-73
2021/09/20 09:17:11;;;;;;;7.73;7.00;;;;;;;;;;5009426;28;20296;-73
2021/09/20 09:19:44;;;;;;;11.03;7.90;;;;;;;;;;5008612;28;20566;-74
2021/09/20 09:22:11;;;;;;;8.27;7.47;;;;;;;;;;5007279;28;20743;-74
2021/09/20 09:24:38;;;;;;;7.57;6.83;;;;;;;;;;5007846;28;20696;-74
2021/09/20 09:27:04;;;;;;;7.40;6.70;;;;;;;;;;5008406;28;20245;-73
2021/09/20 09:29:33;;;;;;;8.47;6.73;;;;;;;;;;5008087;28;20701;-74
2021/09/20 09:32:02;;;;;;;8.70;7.90;;;;;;;;;;5008030;28;20217;-73
2021/09/20 09:34:30;;;;;;;9.43;7.70;;;;;;;;;;5004166;28;20220;-73
2021/09/20 09:37:09;;;;;;;8.17;7.37;;;;;;;;;;5005453;28;20243;-74
2021/09/20 09:39:35;;;;;;;10.30;7.67;;;;;;;;;;5007338;28;20596;-74
2021/09/20 09:42:01;;;;;;;8.60;7.20;;;;;;;;;;5006145;28;20678;-73
2021/09/20 09:44:29;;;;;;;13.33;7.70;;;;;;;;;;5006650;28;20535;-73
2021/09/20 09:46:57;;;;;;;9.57;7.70;;;;;;;;;;5006975;28;20215;-74
2021/09/20 09:49:25;;;;;;;8.97;6.77;;;;;;;;;;5007746;28;20215;-76
2021/09/20 09:51:56;;;;;;;7.70;6.20;;;;;;;;;;5007457;28;20212;-76
2021/09/20 09:54:31;;;;;;;7.80;6.00;;;;;;;;;;5005163;28;20214;-76
2021/09/20 09:57:16;;;;;;;114.60;14.27;;;;;;;;;;5007150;28;20235;-75
2021/09/20 09:59:43;;;;;;;8.67;6.50;;;;;;;;;;5006119;28;20278;-76
2021/09/20 10:02:18;;;;;;;7.30;5.63;;;;;;;;;;5006237;28;20211;-75
2021/09/20 10:04:53;;;;;;;9.03;5.93;;;;;;;;;;5007170;28;20223;-76
2021/09/20 10:07:24;;;;;;;5.50;5.00;;;;;;;;;;5006823;28;20615;-73
2021/09/20 10:09:53;;;;;;;7.47;5.00;;;;;;;;;;5006983;28;20300;-73
2021/09/20 10:12:23;;;;;;;9.77;5.77;;;;;;;;;;5006888;28;20230;-73
2021/09/20 10:14:50;;;;;;;6.43;5.80;;;;;;;;;;5007451;28;21242;-73
2021/09/20 10:17:19;;;;;;;8.97;6.53;;;;;;;;;;5006611;28;20612;-73
2021/09/20 10:19:47;;;;;;;7.97;6.03;;;;;;;;;;5007517;28;20235;-73
2021/09/20 10:22:14;;;;;;;7.90;6.03;;;;;;;;;;5006512;28;20254;-73
2021/09/20 10:24:41;;;;;;;5.57;5.07;;;;;;;;;;5006368;28;20227;-73
2021/09/20 10:27:09;;;;;;;7.43;5.97;;;;;;;;;;5006650;28;20231;-73
2021/09/20 10:29:38;;;;;;;6.80;6.10;;;;;;;;;;5006785;28;20215;-73
2021/09/20 10:32:05;;;;;;;6.00;5.50;;;;;;;;;;5005246;28;20212;-73
2021/09/20 10:34:32;;;;;;;7.70;6.13;;;;;;;;;;5006733;28;20646;-73
2021/09/20 10:37:07;;;;;;;6.93;6.10;;;;;;;;;;5005721;28;20297;-72
2021/09/20 10:39:48;;;;;;;8.07;6.00;;;;;;;;;;5007295;28;20571;-73
2021/09/20 10:42:52;;;;;;;5.53;4.47;;;;;;;;;;5005740;28;20309;-73
2021/09/20 10:45:45;;;;;;;6.53;4.83;;;;;;;;;;5006564;28;20287;-73
2021/09/20 10:48:24;;;;;;;5.27;4.77;;;;;;;;;;5006124;28;20640;-73
2021/09/20 10:50:53;;;;;;;5.43;4.70;;;;;;;;;;5006231;28;20293;-72
2021/09/20 10:53:26;;;;;;;6.40;5.53;;;;;;;;;;5006730;28;20224;-73
2021/09/20 10:56:13;;;;;;;8.23;4.40;;;;;;;;;;5005059;28;20905;-73
2021/09/20 10:58:43;;;;;;;4.83;4.37;;;;;;;;;;5005784;28;20630;-74
2021/09/20 11:01:26;;;;;;;5.70;4.50;;;;;;;;;;5005976;28;20270;-73
2021/09/20 11:03:56;;;;;;;7.27;4.30;;;;;;;;;;5006352;28;20538;-73
2021/09/20 11:06:24;;;;;;;5.73;4.20;;;;;;;;;;5005558;28;20266;-73
2021/09/20 11:09:32;;;;;;;5.00;3.63;;;;;;;;;;5005906;28;20213;-73
2021/09/20 11:12:07;;;;;;;6.63;3.63;;;;;;;;;;5005720;28;20242;-73
2021/09/20 11:14:49;;;;;;;7.50;3.77;;;;;;;;;;5005281;28;20218;-73
2021/09/20 11:17:41;;;;;;;6.23;3.83;;;;;;;;;;5006112;28;20284;-73
2021/09/20 11:20:28;;;;;;;6.77;3.27;;;;;;;;;;4995717;28;20350;-73
2021/09/20 11:23:18;;;;;;;4.87;3.10;;;;;;;;;;5005204;28;20220;-73
2021/09/20 11:26:06;;;;;;;6.40;3.83;;;;;;;;;;5005667;28;20271;-73
2021/09/20 11:28:34;;;;;;;5.73;3.60;;;;;;;;;;5006077;28;20612;-73
2021/09/20 11:31:03;;;;;;;3.60;3.30;;;;;;;;;;5005995;28;21178;-71
2021/09/20 11:33:38;;;;;;;4.80;3.00;;;;;;;;;;5005275;28;20652;-75
2021/09/20 11:36:21;;;;;;;7.53;3.10;;;;;;;;;;5005701;28;20653;-73
2021/09/20 11:38:48;;;;;;;4.73;3.17;;;;;;;;;;5005990;28;20242;-73
2021/09/20 11:41:23;;;;;;;6.40;3.90;;;;;;;;;;5004459;28;20300;-73
2021/09/20 11:43:50;;;;;;;3.53;3.10;;;;;;;;;;5005594;28;20222;-73
2021/09/20 11:46:23;;;;;;;4.10;3.33;;;;;;;;;;5005047;28;20292;-74
2021/09/20 11:49:02;;;;;;;4.87;3.50;;;;;;;;;;5005219;28;20206;-74
2021/09/20 11:51:28;;;;;;;6.50;3.10;;;;;;;;;;5005527;28;20206;-73
2021/09/20 11:53:54;;;;;;;7.50;3.20;;;;;;;;;;5004914;28;21227;-76
2021/09/20 11:56:24;;;;;;;5.47;2.90;;;;;;;;;;5005340;28;20292;-76
2021/09/20 11:58:53;;;;;;;5.77;3.00;;;;;;;;;;5001305;28;20223;-73
2021/09/20 12:01:24;;;;;;;5.30;2.83;;;;;;;;;;4999752;28;20313;-73
2021/09/20 12:03:52;;;;;;;3.73;3.00;;;;;;;;;;5004917;28;20218;-74
2021/09/20 12:06:24;;;;;;;3.77;3.37;;;;;;;;;;5005348;28;20224;-76
2021/09/20 12:08:50;;;;;;;5.63;3.33;;;;;;;;;;5005097;28;20649;-76
2021/09/20 12:11:22;;;;;;;6.87;3.53;;;;;;;;;;5004921;28;20231;-76
2021/09/20 12:13:48;;;;;;;3.70;3.17;;;;;;;;;;5005185;28;20242;-76
2021/09/20 12:16:15;;;;;;;4.83;3.90;;;;;;;;;;5004305;28;20208;-76
2021/09/20 12:18:43;;;;;;;4.20;3.80;;;;;;;;;;5005071;28;20286;-75
2021/09/20 12:21:11;;;;;;;4.30;3.53;;;;;;;;;;5005158;28;20208;-76
2021/09/20 12:23:40;;;;;;;4.37;3.97;;;;;;;;;;5005062;28;21087;-76
2021/09/20 12:26:08;;;;;;;3.80;3.33;;;;;;;;;;5004939;28;20240;-76
2021/09/20 12:28:38;;;;;;;3.47;2.93;;;;;;;;;;5004386;28;20284;-75
2021/09/20 12:31:07;;;;;;;5.93;3.50;;;;;;;;;;5004790;28;20207;-76
2021/09/20 12:33:50;;;;;;;3.40;3.07;;;;;;;;;;5005140;28;20223;-76
2021/09/20 12:36:22;;;;;;;5.57;3.43;;;;;;;;;;5004283;28;20291;-75
2021/09/20 12:38:58;;;;;;;4.47;3.27;;;;;;;;;;5004914;28;20298;-76
2021/09/20 12:41:31;;;;;;;4.20;3.50;;;;;;;;;;5004648;28;20329;-76
2021/09/20 12:43:58;;;;;;;6.93;4.17;;;;;;;;;;5004856;28;20219;-74
2021/09/20 12:46:24;;;;;;;5.40;3.33;;;;;;;;;;5005622;28;20218;-76
2021/09/20 12:48:56;;;;;;;4.10;3.33;;;;;;;;;;5005317;28;20579;-76
2021/09/20 12:51:24;;;;;;;4.47;3.77;;;;;;;;;;5004012;28;20204;-76
2021/09/20 12:53:53;;;;;;;4.97;3.13;;;;;;;;;;5004626;28;20212;-76
2021/09/20 12:56:32;;;;;;;4.60;3.17;;;;;;;;;;5005115;28;20731;-76
2021/09/20 12:59:18;;;;;;;5.77;3.30;;;;;;;;;;5004013;28;20216;-76
2021/09/20 13:01:47;;;;;;;4.33;3.13;;;;;;;;;;5004903;28;20215;-76
2021/09/20 13:04:26;;;;;;;6.23;2.77;;;;;;;;;;5003284;28;20215;-76
2021/09/20 13:07:01;;;;;;;4.67;2.90;;;;;;;;;;5003828;28;20215;-76
2021/09/20 13:09:27;;;;;;;4.10;3.17;;;;;;;;;;5004790;28;20749;-76
2021/09/20 13:12:05;;;;;;;7.33;2.90;;;;;;;;;;5005114;28;20266;-76
2021/09/20 13:14:32;;;;;;;5.23;2.73;;;;;;;;;;5004645;28;20232;-76
2021/09/20 13:17:06;;;;;;;2.90;2.30;;;;;;;;;;5004183;28;20212;-76
2021/09/20 13:19:34;;;;;;;6.83;2.53;;;;;;;;;;5003827;28;20293;-76
2021/09/20 13:22:02;;;;;;;2.40;2.03;;;;;;;;;;5005078;28;20654;-76
2021/09/20 13:24:30;;;;;;;4.07;2.40;;;;;;;;;;5003681;28;20303;-76
2021/09/20 13:26:57;;;;;;;3.40;2.00;;;;;;;;;;5004667;28;20296;-76
2021/09/20 13:29:23;;;;;;;2.93;2.03;;;;;;;;;;5007499;28;20220;-76
2021/09/20 13:31:50;;;;;;;7.13;2.50;;;;;;;;;;5007771;28;20226;-76
2021/09/20 13:34:17;;;;;;;2.50;2.30;;;;;;;;;;5007184;28;20215;-76
2021/09/20 13:36:46;;;;;;;5.67;2.20;;;;;;;;;;5007804;28;20238;-76
2021/09/20 13:39:12;;;;;;;4.37;1.83;;;;;;;;;;5007608;28;20239;-76
2021/09/20 13:41:39;;;;;;;2.60;2.10;;;;;;;;;;5007782;28;20232;-76
2021/09/20 13:44:06;;;;;;;3.50;2.23;;;;;;;;;;5008213;28;20223;-76
2021/09/20 13:46:33;;;;;;;8.37;2.57;;;;;;;;;;5007701;28;20549;-76
2021/09/20 13:49:00;;;;;;;3.10;1.90;;;;;;;;;;5008335;28;20208;-77
2021/09/20 13:51:26;;;;;;;3.40;1.60;;;;;;;;;;5007999;28;20227;-76
2021/09/20 13:53:54;;;;;;;3.50;2.00;;;;;;;;;;5007661;28;20687;-76
2021/09/20 13:56:21;;;;;;;2.10;1.90;;;;;;;;;;5006861;28;20228;-76
2021/09/20 13:58:48;;;;;;;1.60;1.50;;;;;;;;;;5007905;28;20303;-76
2021/09/20 14:01:14;;;;;;;3.43;1.87;;;;;;;;;;5006315;28;20302;-75
2021/09/20 14:03:41;;;;;;;3.63;2.10;;;;;;;;;;5007572;28;20214;-76
2021/09/20 14:06:10;;;;;;;2.73;2.07;;;;;;;;;;5006236;28;20291;-76
2021/09/20 14:08:37;;;;;;;3.37;1.57;;;;;;;;;;5007131;28;20216;-76
2021/09/20 14:11:05;;;;;;;2.83;1.90;;;;;;;;;;5006748;28;20230;-76
2021/09/20 14:13:31;;;;;;;4.43;1.80;;;;;;;;;;5007188;28;20212;-76
2021/09/20 14:15:58;;;;;;;3.50;1.50;;;;;;;;;;5007319;28;20216;-76
2021/09/20 14:18:25;;;;;;;3.37;1.60;;;;;;;;;;5006897;28;20746;-76
2021/09/20 14:20:52;;;;;;;1.63;1.43;;;;;;;;;;5006673;28;20653;-76
2021/09/20 14:23:18;;;;;;;2.20;1.20;;;;;;;;;;5006862;28;20326;-76
2021/09/20 14:25:45;;;;;;;3.40;1.77;;;;;;;;;;5006970;28;20273;-76
2021/09/20 14:28:17;;;;;;;3.47;1.47;;;;;;;;;;5006801;28;20220;-76
2021/09/20 14:30:44;;;;;;;3.00;2.10;;;;;;;;;;5007108;28;20211;-76
2021/09/20 14:33:11;;;;;;;3.60;2.27;;;;;;;;;;5006794;28;20212;-76
2021/09/20 14:35:38;;;;;;;2.50;2.03;;;;;;;;;;5006485;28;20254;-76